Time;durP1;ratioP1;P1;durP2;ratioP2;P2;SDS_P1;SDS_P2;PMS_P1;PMS_P2;Temp;Humidity;BMP_temperature;BMP_pressure;BME280_temperature;BME280_humidity;BME280_pressure;Samples;Min_cycle;Max_cycle;Signal;HPM_P1;HPM_P2
2022/03/07 00:02:12;;;;;;;10.38;5.78;;;-1.40;75.10;;;;;;6188709;23;20033;-85
2022/03/07 00:04:44;;;;;;;10.77;5.90;;;-1.40;74.40;;;;;;6187616;23;20018;-85
2022/03/07 00:07:17;;;;;;;10.70;6.38;;;-1.40;74.70;;;;;;6188468;23;20059;-85
2022/03/07 00:09:45;;;;;;;9.05;5.38;;;-1.50;75.00;;;;;;6189405;23;20597;-85
2022/03/07 00:12:22;;;;;;;9.48;6.00;;;-1.50;75.10;;;;;;6187377;23;20032;-85
2022/03/07 00:14:54;;;;;;;13.77;5.75;;;-1.50;74.00;;;;;;6187822;23;20022;-85
2022/03/07 00:17:28;;;;;;;10.82;6.30;;;-1.50;73.90;;;;;;6186874;23;20022;-85
2022/03/07 00:20:01;;;;;;;14.40;6.07;;;-1.50;74.30;;;;;;6187736;23;20887;-85
2022/03/07 00:22:35;;;;;;;11.50;5.90;;;-1.50;73.70;;;;;;6189365;23;20045;-85
2022/03/07 00:25:07;;;;;;;11.15;5.50;;;-1.50;74.50;;;;;;6186947;23;20025;-85
2022/03/07 00:27:41;;;;;;;8.38;5.22;;;-1.60;75.10;;;;;;6187584;23;20022;-85
2022/03/07 00:30:19;;;;;;;11.95;6.03;;;-1.60;75.00;;;;;;6185427;23;20018;-85
2022/03/07 00:33:01;;;;;;;11.70;5.93;;;-1.60;75.80;;;;;;6181482;23;20029;-85
2022/03/07 00:35:37;;;;;;;11.32;5.80;;;-1.70;76.10;;;;;;6188759;23;20030;-85
2022/03/07 00:38:12;;;;;;;12.43;5.55;;;-1.70;75.40;;;;;;6188714;23;20763;-84
2022/03/07 00:40:40;;;;;;;13.50;5.75;;;-1.70;76.70;;;;;;6187769;23;20878;-85
2022/03/07 00:43:09;;;;;;;12.73;6.00;;;-1.80;77.40;;;;;;6188848;23;21029;-84
2022/03/07 00:45:40;;;;;;;10.35;6.05;;;-1.90;77.60;;;;;;6191797;23;20029;-85
2022/03/07 00:48:14;;;;;;;16.73;6.25;;;-1.90;78.50;;;;;;6189262;23;20026;-85
2022/03/07 00:50:49;;;;;;;18.77;5.47;;;-2.00;78.80;;;;;;6190187;23;20032;-85
2022/03/07 00:53:20;;;;;;;11.73;5.60;;;-2.10;79.10;;;;;;6188985;23;20040;-85
2022/03/07 00:55:59;;;;;;;10.05;5.53;;;-2.10;78.30;;;;;;6190788;23;20028;-85
2022/03/07 00:58:33;;;;;;;11.13;5.55;;;-2.10;78.90;;;;;;6190866;23;20025;-85
2022/03/07 01:01:20;;;;;;;11.25;5.30;;;-2.10;78.80;;;;;;6189515;23;20026;-85
2022/03/07 01:04:02;;;;;;;10.77;5.47;;;-2.10;78.70;;;;;;6190321;23;20717;-85
2022/03/07 01:06:31;;;;;;;14.43;5.45;;;-2.10;78.60;;;;;;6189939;23;20069;-84
2022/03/07 01:08:59;;;;;;;9.88;5.03;;;-2.20;78.10;;;;;;6190290;23;20023;-85
2022/03/07 01:11:27;;;;;;;8.77;5.10;;;-2.20;77.80;;;;;;6192558;23;20104;-85
2022/03/07 01:13:56;;;;;;;8.52;4.65;;;-2.30;79.20;;;;;;6190734;23;20081;-85
2022/03/07 01:16:31;;;;;;;10.82;5.20;;;-2.30;79.30;;;;;;6190491;23;20037;-85
2022/03/07 01:19:03;;;;;;;13.13;4.65;;;-2.30;78.50;;;;;;6189751;23;20017;-85
2022/03/07 01:21:34;;;;;;;10.05;5.18;;;-2.40;79.30;;;;;;6191385;23;20117;-85
2022/03/07 01:24:09;;;;;;;9.15;4.60;;;-2.50;78.60;;;;;;6189446;23;20104;-85
2022/03/07 01:26:40;;;;;;;9.55;4.38;;;-2.50;77.70;;;;;;6189987;23;20021;-85
2022/03/07 01:29:08;;;;;;;9.52;4.65;;;-2.50;77.50;;;;;;6187666;23;20025;-84
2022/03/07 01:31:40;;;;;;;9.80;5.10;;;-2.60;77.30;;;;;;6189071;23;20767;-85
2022/03/07 01:34:14;;;;;;;;;;;-2.60;77.60;;;;;;6188871;23;20020;-85
2022/03/07 01:36:45;;;;;;;14.95;4.57;;;-2.60;78.90;;;;;;6188268;23;19946;-85
2022/03/07 01:39:13;;;;;;;10.52;4.82;;;-2.70;78.90;;;;;;6189309;23;20743;-85
2022/03/07 01:41:44;;;;;;;8.40;4.43;;;-2.70;78.80;;;;;;6190984;23;20022;-85
2022/03/07 01:44:39;;;;;;;8.75;4.72;;;-2.70;78.50;;;;;;6187693;23;21339;-85
2022/03/07 01:47:24;;;;;;;9.75;5.15;;;-2.80;79.30;;;;;;6124250;23;20886;-85
2022/03/07 01:49:56;;;;;;;8.30;4.35;;;-2.80;79.40;;;;;;6189597;23;20025;-85
2022/03/07 01:52:27;;;;;;;7.32;4.18;;;-2.90;79.30;;;;;;6192042;23;20038;-85
2022/03/07 01:55:05;;;;;;;8.52;3.58;;;-2.90;78.50;;;;;;6191484;23;20095;-85
2022/03/07 01:57:42;;;;;;;8.45;4.20;;;-2.90;79.80;;;;;;6193349;23;20021;-85
2022/03/07 02:00:19;;;;;;;9.27;4.43;;;-3.00;79.70;;;;;;6193450;23;20032;-85
2022/03/07 02:02:55;;;;;;;8.02;4.15;;;-3.00;79.10;;;;;;6190735;23;20029;-85
2022/03/07 02:05:34;;;;;;;7.72;4.80;;;-3.00;79.20;;;;;;6190824;23;20014;-85
2022/03/07 02:08:19;;;;;;;8.80;4.60;;;-3.10;78.90;;;;;;6189177;23;20021;-85
2022/03/07 02:10:56;;;;;;;10.55;5.35;;;-3.10;79.50;;;;;;6113875;23;20025;-84
2022/03/07 02:13:24;;;;;;;9.55;4.32;;;-3.20;79.70;;;;;;6189709;23;20810;-84
2022/03/07 02:15:57;;;;;;;8.20;4.40;;;-3.20;79.60;;;;;;6189075;23;20077;-84
2022/03/07 02:18:30;;;;;;;8.77;4.60;;;-3.20;78.60;;;;;;6191061;23;20022;-84
2022/03/07 02:21:10;;;;;;;8.40;4.03;;;-3.30;79.10;;;;;;6189152;23;20025;-84
2022/03/07 02:23:44;;;;;;;10.27;5.05;;;-3.30;79.50;;;;;;6189125;23;20082;-84
2022/03/07 02:26:18;;;;;;;8.18;4.45;;;-3.30;78.30;;;;;;6188391;23;20111;-84
2022/03/07 02:28:47;;;;;;;5.72;3.90;;;-3.30;78.50;;;;;;6189021;23;20895;-83
2022/03/07 02:31:25;;;;;;;7.35;4.93;;;-3.30;77.70;;;;;;6187498;23;20796;-84
2022/03/07 02:33:58;;;;;;;8.77;4.75;;;-3.40;78.50;;;;;;6189849;23;20026;-84
2022/03/07 02:36:25;;;;;;;7.43;4.40;;;-3.40;79.40;;;;;;6187917;23;20030;-84
2022/03/07 02:38:56;;;;;;;8.18;5.15;;;-3.40;80.00;;;;;;6188148;23;20048;-84
2022/03/07 02:41:26;;;;;;;6.15;3.97;;;-3.50;79.70;;;;;;6188561;23;20264;-84
2022/03/07 02:43:59;;;;;;;;;;;-3.50;78.40;;;;;;6188773;23;20680;-84
2022/03/07 02:46:29;;;;;;;6.05;3.60;;;-3.50;78.00;;;;;;6187607;23;20347;-84
2022/03/07 02:49:03;;;;;;;8.90;4.90;;;-3.50;77.80;;;;;;6186001;23;20156;-84
2022/03/07 02:51:32;;;;;;;11.25;5.13;;;-3.60;78.30;;;;;;6187064;23;20025;-84
2022/03/07 02:54:04;;;;;;;7.78;4.82;;;-3.60;79.30;;;;;;6188396;23;20029;-84
2022/03/07 02:56:33;;;;;;;9.77;5.60;;;-3.60;80.20;;;;;;6187302;23;20025;-84
2022/03/07 02:59:02;;;;;;;8.88;4.97;;;-3.60;79.40;;;;;;6186208;23;20069;-84
2022/03/07 03:01:31;;;;;;;10.05;5.32;;;-3.60;79.00;;;;;;6187143;23;20036;-84
2022/03/07 03:04:00;;;;;;;10.85;4.57;;;-3.70;79.20;;;;;;6185882;23;20057;-84
2022/03/07 03:06:32;;;;;;;6.88;4.28;;;-3.70;78.80;;;;;;6186685;23;20032;-84
2022/03/07 03:09:01;;;;;;;8.38;4.50;;;-3.70;79.00;;;;;;6187499;23;20108;-84
2022/03/07 03:11:32;;;;;;;10.68;4.95;;;-3.80;78.20;;;;;;6187368;23;20026;-84
2022/03/07 03:14:02;;;;;;;7.60;4.80;;;-3.80;80.50;;;;;;6187005;23;20025;-84
2022/03/07 03:16:36;;;;;;;10.02;4.88;;;-3.80;81.60;;;;;;6189628;23;20017;-84
2022/03/07 03:19:14;;;;;;;9.80;4.93;;;-3.80;81.20;;;;;;6187237;23;20069;-84
2022/03/07 03:21:44;;;;;;;11.27;4.40;;;-3.90;81.60;;;;;;6187670;23;20021;-84
2022/03/07 03:24:14;;;;;;;9.02;5.47;;;-3.90;81.20;;;;;;6189169;23;20064;-84
2022/03/07 03:26:42;;;;;;;14.70;5.90;;;-4.00;81.20;;;;;;6185934;23;20049;-84
2022/03/07 03:29:17;;;;;;;10.90;5.18;;;-4.00;81.20;;;;;;6186716;23;20025;-84
2022/03/07 03:32:15;;;;;;;7.88;4.85;;;-4.00;80.00;;;;;;6187852;23;20010;-84
2022/03/07 03:34:48;;;;;;;8.43;4.80;;;-4.00;79.30;;;;;;6187765;23;20022;-84
2022/03/07 03:37:19;;;;;;;11.57;4.90;;;-4.00;79.20;;;;;;6188110;23;20025;-84
2022/03/07 03:39:49;;;;;;;9.23;5.32;;;-4.10;79.50;;;;;;6188940;23;20025;-84
2022/03/07 03:42:22;;;;;;;10.18;4.95;;;-4.10;79.90;;;;;;6189970;23;20073;-83
2022/03/07 03:44:53;;;;;;;11.20;4.82;;;-4.10;80.20;;;;;;6187285;23;20028;-84
2022/03/07 03:47:36;;;;;;;;;;;-4.10;81.30;;;;;;6188583;23;20816;-84
2022/03/07 03:50:11;;;;;;;8.48;4.60;;;-4.20;80.80;;;;;;6188094;23;20373;-84
2022/03/07 03:52:43;;;;;;;8.32;5.10;;;-4.20;80.80;;;;;;6189074;23;20112;-84
2022/03/07 03:55:16;;;;;;;7.80;4.75;;;-4.30;81.30;;;;;;6188513;23;20061;-84
2022/03/07 03:57:45;;;;;;;9.52;4.70;;;-4.30;81.10;;;;;;6187635;23;20091;-84
2022/03/07 04:00:17;;;;;;;8.27;5.15;;;-4.30;80.10;;;;;;6187385;23;20021;-83
2022/03/07 04:02:46;;;;;;;9.43;5.30;;;-4.30;81.10;;;;;;6187047;23;20029;-83
2022/03/07 04:05:19;;;;;;;7.93;4.47;;;-4.30;81.00;;;;;;6187973;23;20022;-84
2022/03/07 04:07:51;;;;;;;8.77;5.13;;;-4.40;81.80;;;;;;6187284;23;20908;-84
2022/03/07 04:10:24;;;;;;;8.18;4.80;;;-4.40;81.20;;;;;;6187285;23;20840;-84
2022/03/07 04:13:01;;;;;;;10.32;5.22;;;-4.40;81.10;;;;;;6188994;23;20045;-84
2022/03/07 04:15:30;;;;;;;7.22;4.05;;;-4.50;81.10;;;;;;6188335;23;20013;-85
2022/03/07 04:18:04;;;;;;;7.82;4.55;;;-4.50;80.10;;;;;;6188279;23;20025;-85
2022/03/07 04:20:36;;;;;;;9.75;4.55;;;-4.50;80.30;;;;;;6187231;23;20017;-84
2022/03/07 04:23:08;;;;;;;8.95;4.75;;;-4.50;79.90;;;;;;6187428;23;20449;-84
2022/03/07 04:26:06;;;;;;;;;;;;;;;;;;;;;
2022/03/07 04:28:29;;;;;;;12.32;5.07;;;-4.60;79.40;;;;;;6187065;23;20480;-85
2022/03/07 04:30:57;;;;;;;9.90;5.75;;;-4.60;79.20;;;;;;6187968;23;20022;-84
2022/03/07 04:33:27;;;;;;;9.57;4.72;;;-4.60;79.60;;;;;;6187016;23;20068;-84
2022/03/07 04:36:02;;;;;;;7.28;3.83;;;-4.60;79.70;;;;;;6185687;23;20026;-84
2022/03/07 04:38:34;;;;;;;11.50;6.30;;;-4.70;79.60;;;;;;6185549;23;20029;-84
2022/03/07 04:41:03;;;;;;;13.20;7.47;;;-4.70;79.80;;;;;;6189490;23;20028;-84
2022/03/07 04:43:34;;;;;;;11.88;5.65;;;-4.70;82.50;;;;;;6189269;23;20112;-84
2022/03/07 04:46:04;;;;;;;10.05;5.47;;;-4.70;82.90;;;;;;6189156;23;20026;-84
2022/03/07 04:48:42;;;;;;;10.90;5.97;;;-4.70;81.30;;;;;;6187728;23;20010;-84
2022/03/07 04:51:10;;;;;;;11.90;6.00;;;-4.80;81.60;;;;;;6188493;23;20094;-85
2022/03/07 04:53:45;;;;;;;13.38;6.53;;;-4.80;82.40;;;;;;6188294;23;20064;-84
2022/03/07 04:56:14;;;;;;;9.73;5.82;;;-4.80;82.40;;;;;;6190401;23;20028;-85
2022/03/07 04:58:48;;;;;;;12.07;5.40;;;-4.80;81.70;;;;;;6191022;23;20030;-85
2022/03/07 05:01:19;;;;;;;7.82;5.07;;;-4.80;81.00;;;;;;6188821;23;20022;-84
2022/03/07 05:03:49;;;;;;;8.65;5.30;;;-4.80;80.80;;;;;;6189427;23;20051;-84
2022/03/07 05:06:28;;;;;;;;;;;;;;;;;;;;;
2022/03/07 05:09:15;;;;;;;8.65;5.45;;;-4.90;79.80;;;;;;6187648;23;20033;-84
2022/03/07 05:11:44;;;;;;;9.45;5.38;;;-4.90;81.00;;;;;;6189519;23;20017;-84
2022/03/07 05:14:15;;;;;;;8.65;5.50;;;-4.90;81.10;;;;;;6189643;23;20099;-84
2022/03/07 05:16:46;;;;;;;10.35;5.45;;;-4.90;80.90;;;;;;6186741;23;20021;-84
2022/03/07 05:19:20;;;;;;;10.07;5.55;;;-5.00;81.90;;;;;;6188392;23;20492;-84
2022/03/07 05:22:05;;;;;;;12.18;5.38;;;-5.00;81.50;;;;;;6180994;23;20076;-86
2022/03/07 05:24:36;;;;;;;10.98;6.07;;;-5.00;81.00;;;;;;6186390;23;20032;-85
2022/03/07 05:27:08;;;;;;;9.15;5.75;;;-5.00;80.10;;;;;;6187035;23;20893;-84
2022/03/07 05:29:39;;;;;;;8.85;5.28;;;-5.00;79.60;;;;;;6185011;23;20072;-84
2022/03/07 05:32:18;;;;;;;10.90;5.63;;;-5.00;79.20;;;;;;6187088;23;20029;-84
2022/03/07 05:34:49;;;;;;;11.60;6.03;;;-5.00;79.00;;;;;;6187099;23;20049;-84
2022/03/07 05:37:21;;;;;;;8.77;4.88;;;-5.10;79.10;;;;;;6188004;23;20025;-84
2022/03/07 05:39:48;;;;;;;12.10;6.13;;;-5.10;79.30;;;;;;6188874;23;20069;-85
2022/03/07 05:42:23;;;;;;;12.52;5.90;;;-5.10;80.50;;;;;;6187095;23;20049;-84
2022/03/07 05:44:52;;;;;;;9.73;5.03;;;-5.10;81.90;;;;;;6187538;23;20028;-84
2022/03/07 05:47:20;;;;;;;12.25;6.30;;;-5.10;82.80;;;;;;6186144;23;20509;-84
2022/03/07 05:49:47;;;;;;;10.93;5.97;;;-5.10;82.30;;;;;;6186310;23;20100;-84
2022/03/07 05:52:28;;;;;;;11.10;6.18;;;-5.10;80.90;;;;;;6183748;23;20071;-84
2022/03/07 05:55:13;;;;;;;12.60;6.72;;;-5.10;80.70;;;;;;6187186;23;20595;-84
2022/03/07 05:57:51;;;;;;;11.70;7.15;;;-5.10;82.80;;;;;;6187442;23;20021;-84
2022/03/07 06:00:25;;;;;;;21.23;11.40;;;-5.10;83.50;;;;;;6187358;23;20532;-84
2022/03/07 06:06:30;;;;;;;15.32;8.55;;;-5.10;82.70;;;;;;6121366;23;20020;-84
2022/03/07 06:09:21;;;;;;;14.10;7.60;;;-5.10;81.30;;;;;;6111607;23;21428;-85
2022/03/07 06:12:21;;;;;;;8.55;5.50;;;-5.10;80.80;;;;;;6186641;23;20033;-85
2022/03/07 06:15:12;;;;;;;11.82;6.22;;;-5.10;80.80;;;;;;6186654;23;20013;-84
2022/03/07 06:17:54;;;;;;;10.15;5.57;;;-5.10;81.00;;;;;;6186550;23;20084;-85
2022/03/07 06:20:29;;;;;;;17.30;6.32;;;-5.10;80.80;;;;;;6185335;23;20049;-84
2022/03/07 06:23:10;;;;;;;11.95;5.20;;;-5.10;80.80;;;;;;6187719;23;20022;-84
2022/03/07 06:26:23;;;;;;;12.10;5.57;;;-5.10;81.10;;;;;;6138448;23;20530;-84
2022/03/07 06:29:08;;;;;;;11.07;5.13;;;-5.20;82.20;;;;;;6174457;23;20029;-84
2022/03/07 06:31:35;;;;;;;10.23;5.78;;;-5.20;81.60;;;;;;6185768;23;20052;-84
2022/03/07 06:34:05;;;;;;;9.52;5.22;;;-5.20;81.00;;;;;;6187826;23;20030;-84
2022/03/07 06:37:08;;;;;;;12.70;6.15;;;-5.20;80.10;;;;;;6184516;23;20613;-85
2022/03/07 06:39:58;;;;;;;10.20;5.15;;;-5.10;80.50;;;;;;6065955;23;20051;-84
2022/03/07 06:42:29;;;;;;;14.82;6.15;;;-5.10;80.60;;;;;;6044171;23;20443;-84
2022/03/07 06:45:04;;;;;;;13.52;6.70;;;-5.10;81.20;;;;;;6041945;23;20043;-84
2022/03/07 06:47:37;;;;;;;12.27;6.13;;;-5.10;81.40;;;;;;6067674;23;20101;-84
2022/03/07 06:53:30;;;;;;;14.10;7.70;;;-5.10;83.50;;;;;;6006736;23;20432;-84
2022/03/07 06:55:58;;;;;;;13.10;7.50;;;-5.00;83.60;;;;;;5984477;23;20036;-84
2022/03/07 06:58:25;;;;;;;11.88;7.85;;;-5.00;83.50;;;;;;6008420;23;20039;-84
2022/03/07 07:01:07;;;;;;;15.18;7.57;;;-4.90;83.00;;;;;;6006628;23;20026;-84
2022/03/07 07:07:16;;;;;;;13.77;7.43;;;-4.80;82.70;;;;;;6000083;23;20172;-84
2022/03/07 07:10:07;;;;;;;11.82;7.60;;;-4.70;82.60;;;;;;5897140;24;20291;-84
2022/03/07 07:13:52;;;;;;;14.57;6.85;;;-4.60;82.80;;;;;;5894370;24;20038;-84
2022/03/07 07:16:25;;;;;;;14.88;7.53;;;-4.60;83.20;;;;;;5873061;24;20017;-84
2022/03/07 07:19:02;;;;;;;11.52;7.10;;;-4.50;82.90;;;;;;5952431;24;20029;-84
2022/03/07 07:21:43;;;;;;;11.73;7.05;;;-4.40;83.30;;;;;;5926131;24;20029;-84
2022/03/07 07:24:27;;;;;;;11.80;7.60;;;-4.30;83.10;;;;;;5953311;24;20782;-84
2022/03/07 07:27:20;;;;;;;13.27;7.72;;;-4.30;82.70;;;;;;5948831;24;20025;-84
2022/03/07 07:30:09;;;;;;;13.90;8.18;;;-4.20;82.90;;;;;;5952453;24;20029;-84
2022/03/07 07:32:40;;;;;;;14.43;8.90;;;-4.10;82.90;;;;;;5931712;24;20105;-84
2022/03/07 07:35:36;;;;;;;18.25;9.35;;;-4.00;83.60;;;;;;5954292;24;20021;-84
2022/03/07 07:38:08;;;;;;;20.80;8.07;;;-4.00;84.10;;;;;;5954681;24;20103;-84
2022/03/07 07:40:55;;;;;;;15.45;8.55;;;-3.90;84.10;;;;;;5960002;23;20055;-85
2022/03/07 07:43:22;;;;;;;14.68;9.05;;;-3.80;84.10;;;;;;6034958;23;20023;-84
2022/03/07 07:46:00;;;;;;;18.15;9.95;;;-3.70;84.40;;;;;;6037213;23;20715;-84
2022/03/07 07:48:30;;;;;;;17.35;9.73;;;-3.60;84.80;;;;;;6074030;23;20027;-84
2022/03/07 07:51:06;;;;;;;18.95;10.18;;;-3.50;84.40;;;;;;6168529;23;20092;-84
2022/03/07 07:53:39;;;;;;;15.20;8.90;;;-3.40;84.70;;;;;;6187913;23;20021;-84
2022/03/07 07:56:06;;;;;;;17.85;9.80;;;-3.30;84.40;;;;;;6186827;23;20017;-85
2022/03/07 07:59:08;;;;;;;17.30;9.98;;;-3.20;84.20;;;;;;6186463;23;20906;-84
2022/03/07 08:01:49;;;;;;;19.00;9.90;;;-3.00;84.90;;;;;;6185813;23;20022;-85
2022/03/07 08:04:26;;;;;;;17.33;10.27;;;-2.90;85.80;;;;;;6185243;23;20032;-85
2022/03/07 08:07:17;;;;;;;17.30;10.80;;;-2.80;85.40;;;;;;6075627;23;20015;-84
2022/03/07 08:10:02;;;;;;;15.48;9.70;;;-2.60;85.40;;;;;;6100523;23;20023;-85
2022/03/07 08:12:36;;;;;;;15.85;10.18;;;-2.50;85.90;;;;;;6082149;23;20015;-85
2022/03/07 10:00:20;;;;;;;14.25;7.85;;;9.00;47.20;;;;;;6125282;23;20849;-84
2022/03/07 10:03:09;;;;;;;15.95;8.00;;;9.10;49.20;;;;;;6183831;23;20739;-84
2022/03/07 10:05:48;;;;;;;13.52;6.65;;;8.80;49.00;;;;;;6185661;23;20036;-84
2022/03/07 10:08:25;;;;;;;9.32;5.70;;;9.30;49.20;;;;;;6183457;23;20096;-84
2022/03/07 10:10:56;;;;;;;9.80;5.72;;;9.10;44.10;;;;;;6185396;23;20030;-84
2022/03/07 10:13:34;;;;;;;10.57;5.75;;;8.80;44.60;;;;;;6183607;23;20030;-84
2022/03/07 10:16:14;;;;;;;8.38;4.88;;;8.60;45.60;;;;;;6181806;23;20045;-84
2022/03/07 10:18:51;;;;;;;7.85;4.63;;;8.70;43.70;;;;;;6185443;23;20026;-84
2022/03/07 10:21:26;;;;;;;10.20;3.95;;;8.80;44.20;;;;;;6183707;23;20100;-84
2022/03/07 10:23:55;;;;;;;9.15;4.78;;;9.00;44.50;;;;;;6181396;23;20018;-84
2022/03/07 10:26:39;;;;;;;11.70;4.75;;;9.20;43.60;;;;;;6182638;23;20088;-84
2022/03/07 10:29:07;;;;;;;8.80;5.07;;;9.40;44.30;;;;;;6182701;23;20030;-84
2022/03/07 10:32:03;;;;;;;7.45;4.97;;;9.60;43.40;;;;;;6183451;23;20118;-85
2022/03/07 10:34:36;;;;;;;9.25;5.07;;;9.70;42.80;;;;;;6183901;23;20084;-84
2022/03/07 10:37:12;;;;;;;7.07;4.40;;;9.10;42.70;;;;;;6181221;23;20040;-84
2022/03/07 10:39:56;;;;;;;5.95;3.90;;;9.30;44.70;;;;;;6159694;23;20036;-84
2022/03/07 10:42:24;;;;;;;8.52;4.32;;;9.50;44.50;;;;;;6158879;23;20847;-84
2022/03/07 10:44:50;;;;;;;7.57;4.57;;;9.60;42.00;;;;;;6185428;23;20030;-84
2022/03/07 10:47:38;;;;;;;6.50;4.03;;;9.00;40.60;;;;;;6185662;23;20041;-84
2022/03/07 10:50:05;;;;;;;9.80;4.22;;;9.20;43.00;;;;;;6187759;23;20018;-84
2022/03/07 10:52:42;;;;;;;8.15;4.47;;;8.90;42.80;;;;;;6189103;23;20030;-84
2022/03/07 10:55:20;;;;;;;8.20;5.13;;;9.10;44.30;;;;;;6183335;23;20025;-84
2022/03/07 10:57:51;;;;;;;9.07;4.93;;;9.30;41.60;;;;;;6185530;23;20314;-85
2022/03/07 11:00:21;;;;;;;8.55;4.30;;;9.00;42.30;;;;;;6184037;23;20112;-84
2022/03/07 11:02:54;;;;;;;9.70;4.55;;;9.10;43.40;;;;;;6182366;23;20020;-84
2022/03/07 11:05:24;;;;;;;7.03;4.63;;;9.10;42.50;;;;;;6184768;23;20100;-84
2022/03/07 11:07:51;;;;;;;9.13;4.60;;;9.30;42.30;;;;;;6185430;23;20045;-84
2022/03/07 11:10:27;;;;;;;7.68;3.97;;;8.90;42.20;;;;;;6182030;23;20049;-84
2022/03/07 11:13:07;;;;;;;7.70;3.95;;;8.60;41.80;;;;;;6183346;23;20085;-84
2022/03/07 11:15:46;;;;;;;7.63;4.45;;;8.80;44.00;;;;;;6184563;23;20033;-84
2022/03/07 11:18:27;;;;;;;7.72;4.00;;;9.00;43.90;;;;;;6184932;23;20025;-84
2022/03/07 11:21:07;;;;;;;11.40;4.80;;;9.30;42.00;;;;;;6185915;23;20104;-84
2022/03/07 11:23:42;;;;;;;8.93;4.70;;;8.70;42.80;;;;;;6183870;23;20092;-84
2022/03/07 11:26:30;;;;;;;8.20;4.43;;;8.50;42.70;;;;;;6185065;23;20036;-84
2022/03/07 11:28:59;;;;;;;8.90;5.05;;;8.50;42.40;;;;;;6185867;23;20023;-84
2022/03/07 11:31:32;;;;;;;7.75;3.85;;;8.30;42.40;;;;;;6182834;23;20025;-84
2022/03/07 11:34:14;;;;;;;5.93;3.80;;;8.10;43.00;;;;;;6187808;23;20025;-84
2022/03/07 11:36:44;;;;;;;6.55;3.75;;;8.30;43.30;;;;;;6191243;23;20837;-84
2022/03/07 11:39:12;;;;;;;5.93;3.65;;;8.20;42.60;;;;;;6192352;23;20460;-84
2022/03/07 11:41:40;;;;;;;7.72;3.85;;;8.10;43.30;;;;;;6195375;23;20018;-84
2022/03/07 11:44:18;;;;;;;6.80;3.63;;;8.20;43.70;;;;;;6190446;23;20057;-84
2022/03/07 11:46:51;;;;;;;6.93;3.72;;;8.30;44.20;;;;;;6188043;23;20080;-84
2022/03/07 11:49:31;;;;;;;6.72;3.85;;;8.30;43.40;;;;;;6188261;23;20463;-84
2022/03/07 11:52:05;;;;;;;7.15;3.58;;;8.20;44.90;;;;;;6186400;23;20057;-85
2022/03/07 11:55:26;;;;;;;7.68;3.72;;;8.20;45.20;;;;;;6184821;23;20502;-85
2022/03/07 11:58:35;;;;;;;6.03;3.58;;;8.20;44.00;;;;;;6187430;23;20022;-85
2022/03/07 12:01:12;;;;;;;6.65;3.67;;;7.60;43.40;;;;;;6189309;23;20033;-84
2022/03/07 12:03:49;;;;;;;;;;;;;;;;;;;;;
2022/03/07 12:06:49;;;;;;;6.75;3.78;;;7.70;44.70;;;;;;6188260;23;20063;-84
2022/03/07 12:09:36;;;;;;;6.45;3.60;;;7.70;44.30;;;;;;6187210;23;20026;-84
2022/03/07 12:12:20;;;;;;;6.80;4.20;;;7.90;44.30;;;;;;6187150;23;20025;-84
2022/03/07 12:14:47;;;;;;;6.03;4.03;;;7.70;44.60;;;;;;6188572;23;20097;-85
2022/03/07 12:17:56;;;;;;;8.02;4.38;;;7.70;46.30;;;;;;6187283;23;20049;-84
2022/03/07 12:20:58;;;;;;;7.57;4.32;;;7.90;46.20;;;;;;6041648;23;20016;-84
2022/03/07 12:23:34;;;;;;;8.15;4.70;;;7.60;46.10;;;;;;6067004;23;20032;-85
2022/03/07 12:26:16;;;;;;;9.77;4.28;;;7.70;46.60;;;;;;6066208;23;20066;-84
2022/03/07 12:28:53;;;;;;;7.55;4.70;;;8.00;46.10;;;;;;6042589;23;20024;-85
2022/03/07 12:31:38;;;;;;;8.02;4.25;;;8.00;46.00;;;;;;6066901;23;20023;-85
2022/03/07 12:40:54;;;;;;;6.78;4.32;;;7.90;45.60;;;;;;6009709;23;20028;-83
2022/03/07 12:43:21;;;;;;;8.38;5.30;;;7.80;46.30;;;;;;6009664;23;20054;-85
2022/03/07 12:45:55;;;;;;;11.45;5.35;;;7.70;45.80;;;;;;6009357;23;20012;-84
2022/03/07 12:48:46;;;;;;;9.40;5.32;;;7.30;46.80;;;;;;5923890;24;20075;-84
2022/03/07 12:52:08;;;;;;;8.95;5.15;;;7.40;47.80;;;;;;5924146;23;20109;-84
2022/03/07 12:54:49;;;;;;;9.60;5.20;;;7.70;48.20;;;;;;5919803;24;20029;-84
2022/03/07 12:57:49;;;;;;;9.43;5.35;;;7.90;47.80;;;;;;5911500;24;20025;-84
2022/03/07 13:00:32;;;;;;;11.25;5.03;;;8.10;47.20;;;;;;5924257;24;20388;-84
2022/03/07 13:03:16;;;;;;;10.35;4.88;;;8.00;45.60;;;;;;5918632;24;20052;-84
2022/03/07 13:06:16;;;;;;;11.18;5.18;;;7.90;46.30;;;;;;5906563;24;20438;-84
2022/03/07 13:09:09;;;;;;;9.15;4.97;;;8.10;46.60;;;;;;5902588;24;20026;-84
2022/03/07 13:12:10;;;;;;;8.48;4.72;;;8.20;46.10;;;;;;5920730;24;20041;-84
2022/03/07 13:15:31;;;;;;;;;;;;;;;;;;;;;
2022/03/07 13:18:29;;;;;;;7.50;4.50;;;8.10;46.50;;;;;;5874689;24;20065;-84
2022/03/07 13:25:04;;;;;;;8.90;4.82;;;8.20;45.30;;;;;;5949293;24;20560;-84
2022/03/07 13:28:16;;;;;;;9.90;4.93;;;8.30;45.80;;;;;;5963493;23;20882;-84
2022/03/07 13:30:52;;;;;;;5.70;4.28;;;8.30;46.40;;;;;;6035536;23;20024;-84
2022/03/07 13:33:39;;;;;;;6.97;4.45;;;8.40;46.90;;;;;;6011160;23;20105;-84
2022/03/07 13:36:40;;;;;;;;;;;;;;;;;;;;;
2022/03/07 20:06:52;;;;;;;13.35;7.93;;;3.20;61.50;;;;;;5665292;22;15050354;-85
2022/03/07 20:09:51;;;;;;;16.50;8.80;;;3.10;62.50;;;;;;6232410;22;20902;-85
2022/03/07 20:16:31;;;;;;;14.15;8.13;;;3.00;62.80;;;;;;5961811;24;20074;-86
2022/03/07 20:20:00;;;;;;;13.50;7.63;;;2.90;62.00;;;;;;5880947;24;20030;-85
2022/03/07 20:23:09;;;;;;;14.32;8.40;;;2.80;62.10;;;;;;5878676;24;20019;-86
2022/03/07 20:25:56;;;;;;;15.45;8.55;;;2.60;64.00;;;;;;5859576;24;20034;-85
2022/03/07 20:28:38;;;;;;;13.73;8.10;;;2.50;64.10;;;;;;5798982;24;20015;-86
2022/03/07 20:31:07;;;;;;;15.35;8.57;;;2.40;63.50;;;;;;5915670;23;20356;-84
2022/03/07 20:33:45;;;;;;;13.77;8.75;;;2.30;64.30;;;;;;5990272;23;20051;-84
2022/03/07 20:36:55;;;;;;;15.15;8.95;;;2.20;64.90;;;;;;5954931;23;20033;-87
2022/03/07 20:39:24;;;;;;;16.45;9.70;;;2.20;64.40;;;;;;5992959;23;20039;-84
2022/03/07 20:42:06;;;;;;;23.15;10.77;;;2.10;65.20;;;;;;5998123;23;20028;-85
2022/03/07 20:44:37;;;;;;;19.70;11.07;;;2.10;65.80;;;;;;6020623;23;20020;-85
2022/03/07 20:47:06;;;;;;;19.17;10.55;;;2.10;65.40;;;;;;6020435;23;20138;-84
2022/03/07 20:49:41;;;;;;;16.23;9.65;;;2.10;65.80;;;;;;5997912;23;20874;-85
2022/03/07 20:52:30;;;;;;;18.83;10.02;;;2.10;66.20;;;;;;6045504;23;20022;-85
2022/03/07 20:55:55;;;;;;;15.43;9.52;;;2.20;66.60;;;;;;6081565;23;20049;-84
2022/03/07 21:02:20;;;;;;;19.85;9.70;;;2.10;66.20;;;;;;6071767;23;20023;-85
2022/03/07 21:08:41;;;;;;;;;;;;;;;;;;;;;
2022/03/07 21:11:25;;;;;;;21.23;10.00;;;2.10;67.00;;;;;;6014669;23;20032;-85
2022/03/07 21:14:06;;;;;;;16.33;9.02;;;2.10;66.80;;;;;;6067690;23;20018;-85
2022/03/07 21:16:46;;;;;;;19.17;9.70;;;2.10;66.40;;;;;;6077642;23;20819;-84
2022/03/07 21:20:05;;;;;;;18.73;9.18;;;2.10;67.10;;;;;;5985725;23;21003;-85
2022/03/07 21:23:09;;;;;;;16.23;8.73;;;2.00;66.20;;;;;;5985611;23;20013;-84
2022/03/07 23:26:53;;;;;;;20.13;9.98;;;0.80;70.30;;;;;;6162088;23;20480;-84
2022/03/07 23:29:20;;;;;;;16.60;9.65;;;0.80;70.20;;;;;;6222988;23;20103;-84
2022/03/07 23:32:01;;;;;;;17.25;9.40;;;0.70;70.00;;;;;;6221437;23;20025;-84
2022/03/07 23:34:48;;;;;;;18.08;9.50;;;0.70;70.20;;;;;;6225887;23;20021;-84
2022/03/07 23:37:34;;;;;;;19.42;9.85;;;0.70;70.40;;;;;;6200565;23;20028;-84
2022/03/07 23:40:21;;;;;;;19.80;9.75;;;0.70;70.10;;;;;;6197841;23;20033;-84
2022/03/07 23:42:47;;;;;;;17.75;9.35;;;0.60;70.00;;;;;;6198864;23;20104;-84
2022/03/07 23:45:17;;;;;;;16.15;9.23;;;0.60;70.40;;;;;;6223314;23;20036;-84
2022/03/07 23:47:45;;;;;;;19.58;9.32;;;0.60;70.40;;;;;;6223786;23;20048;-84
2022/03/07 23:50:21;;;;;;;17.48;9.57;;;0.60;70.30;;;;;;6225486;23;20095;-84
2022/03/07 23:53:24;;;;;;;19.20;9.70;;;0.60;70.40;;;;;;6198422;23;20100;-84
2022/03/07 23:56:15;;;;;;;17.48;9.57;;;0.60;70.50;;;;;;6203666;23;20013;-84
2022/03/07 23:58:46;;;;;;;16.90;9.55;;;0.50;70.90;;;;;;6198646;23;20021;-84
